sensor_id;sensor_type;location;lat;lon;timestamp;P1;durP1;ratioP1;P2;durP2;ratioP2
59127;SDS011;44912;52.754;5.994;2022-12-29T00:01:53;8.52;;;5.97;;
59127;SDS011;44912;52.754;5.994;2022-12-29T00:04:18;7.63;;;5.93;;
59127;SDS011;44912;52.754;5.994;2022-12-29T00:06:44;7.75;;;5.47;;
59127;SDS011;44912;52.754;5.994;2022-12-29T00:09:11;10.32;;;5.72;;
59127;SDS011;44912;52.754;5.994;2022-12-29T00:11:38;10.60;;;5.78;;
59127;SDS011;44912;52.754;5.994;2022-12-29T00:14:04;8.73;;;5.15;;
59127;SDS011;44912;52.754;5.994;2022-12-29T00:16:48;9.27;;;5.47;;
59127;SDS011;44912;52.754;5.994;2022-12-29T00:19:14;7.68;;;5.28;;
59127;SDS011;44912;52.754;5.994;2022-12-29T00:21:58;8.13;;;4.93;;
59127;SDS011;44912;52.754;5.994;2022-12-29T00:24:43;6.90;;;4.75;;
59127;SDS011;44912;52.754;5.994;2022-12-29T00:27:18;8.10;;;5.20;;
59127;SDS011;44912;52.754;5.994;2022-12-29T00:32:55;6.85;;;4.90;;
59127;SDS011;44912;52.754;5.994;2022-12-29T00:35:39;7.75;;;4.70;;
59127;SDS011;44912;52.754;5.994;2022-12-29T00:38:11;7.80;;;4.75;;
59127;SDS011;44912;52.754;5.994;2022-12-29T00:41:00;5.95;;;4.07;;
59127;SDS011;44912;52.754;5.994;2022-12-29T00:43:44;6.32;;;4.18;;
59127;SDS011;44912;52.754;5.994;2022-12-29T00:46:28;6.33;;;4.23;;
59127;SDS011;44912;52.754;5.994;2022-12-29T00:48:54;7.40;;;4.47;;
59127;SDS011;44912;52.754;5.994;2022-12-29T00:51:38;6.75;;;4.35;;
59127;SDS011;44912;52.754;5.994;2022-12-29T00:54:03;8.50;;;4.38;;
59127;SDS011;44912;52.754;5.994;2022-12-29T00:56:29;7.82;;;3.97;;
59127;SDS011;44912;52.754;5.994;2022-12-29T00:58:54;6.32;;;3.67;;
59127;SDS011;44912;52.754;5.994;2022-12-29T01:01:20;7.97;;;4.40;;
59127;SDS011;44912;52.754;5.994;2022-12-29T01:03:45;7.63;;;3.78;;
59127;SDS011;44912;52.754;5.994;2022-12-29T01:06:11;7.57;;;3.80;;
59127;SDS011;44912;52.754;5.994;2022-12-29T01:08:37;5.05;;;3.60;;
59127;SDS011;44912;52.754;5.994;2022-12-29T01:11:06;6.10;;;3.70;;
59127;SDS011;44912;52.754;5.994;2022-12-29T01:13:33;6.72;;;3.45;;
59127;SDS011;44912;52.754;5.994;2022-12-29T01:15:59;6.60;;;3.60;;
59127;SDS011;44912;52.754;5.994;2022-12-29T01:18:25;6.10;;;3.40;;
59127;SDS011;44912;52.754;5.994;2022-12-29T01:20:57;5.90;;;3.42;;
59127;SDS011;44912;52.754;5.994;2022-12-29T01:23:27;4.90;;;2.88;;
59127;SDS011;44912;52.754;5.994;2022-12-29T01:25:53;6.15;;;2.80;;
59127;SDS011;44912;52.754;5.994;2022-12-29T01:28:19;7.82;;;3.33;;
59127;SDS011;44912;52.754;5.994;2022-12-29T01:30:45;5.15;;;3.03;;
59127;SDS011;44912;52.754;5.994;2022-12-29T01:33:10;5.38;;;2.60;;
59127;SDS011;44912;52.754;5.994;2022-12-29T01:35:36;4.28;;;2.70;;
59127;SDS011;44912;52.754;5.994;2022-12-29T01:38:01;4.85;;;2.50;;
59127;SDS011;44912;52.754;5.994;2022-12-29T01:40:27;5.28;;;2.47;;
59127;SDS011;44912;52.754;5.994;2022-12-29T01:42:53;5.05;;;2.65;;
59127;SDS011;44912;52.754;5.994;2022-12-29T01:45:19;4.15;;;2.40;;
59127;SDS011;44912;52.754;5.994;2022-12-29T01:47:58;5.47;;;2.60;;
59127;SDS011;44912;52.754;5.994;2022-12-29T01:53:05;4.05;;;2.20;;
59127;SDS011;44912;52.754;5.994;2022-12-29T01:55:45;5.60;;;2.20;;
59127;SDS011;44912;52.754;5.994;2022-12-29T01:58:14;4.07;;;2.10;;
59127;SDS011;44912;52.754;5.994;2022-12-29T02:00:42;5.55;;;2.60;;
59127;SDS011;44912;52.754;5.994;2022-12-29T02:03:08;4.93;;;1.80;;
59127;SDS011;44912;52.754;5.994;2022-12-29T02:05:48;3.95;;;1.85;;
59127;SDS011;44912;52.754;5.994;2022-12-29T02:08:20;5.05;;;2.25;;
59127;SDS011;44912;52.754;5.994;2022-12-29T02:10:49;4.68;;;2.05;;
59127;SDS011;44912;52.754;5.994;2022-12-29T02:13:15;5.10;;;2.00;;
59127;SDS011;44912;52.754;5.994;2022-12-29T02:15:54;4.95;;;1.90;;
59127;SDS011;44912;52.754;5.994;2022-12-29T02:18:44;8.07;;;2.25;;
59127;SDS011;44912;52.754;5.994;2022-12-29T02:21:20;5.13;;;2.35;;
59127;SDS011;44912;52.754;5.994;2022-12-29T02:29:36;4.15;;;2.30;;
59127;SDS011;44912;52.754;5.994;2022-12-29T02:32:27;4.95;;;2.03;;
59127;SDS011;44912;52.754;5.994;2022-12-29T02:37:58;4.20;;;1.70;;
59127;SDS011;44912;52.754;5.994;2022-12-29T02:40:43;5.50;;;1.92;;
59127;SDS011;44912;52.754;5.994;2022-12-29T02:43:26;3.72;;;1.60;;
59127;SDS011;44912;52.754;5.994;2022-12-29T02:48:43;2.70;;;1.50;;
59127;SDS011;44912;52.754;5.994;2022-12-29T02:51:19;5.40;;;1.65;;
59127;SDS011;44912;52.754;5.994;2022-12-29T02:53:49;3.75;;;1.42;;
59127;SDS011;44912;52.754;5.994;2022-12-29T02:56:36;2.53;;;1.48;;
59127;SDS011;44912;52.754;5.994;2022-12-29T02:59:01;3.92;;;1.90;;
59127;SDS011;44912;52.754;5.994;2022-12-29T03:08:48;4.95;;;1.73;;
59127;SDS011;44912;52.754;5.994;2022-12-29T03:11:00;3.92;;;1.80;;
59127;SDS011;44912;52.754;5.994;2022-12-29T03:16:20;4.65;;;1.80;;
59127;SDS011;44912;52.754;5.994;2022-12-29T03:24:54;3.17;;;1.80;;
59127;SDS011;44912;52.754;5.994;2022-12-29T03:27:33;4.57;;;1.70;;
59127;SDS011;44912;52.754;5.994;2022-12-29T03:30:03;4.38;;;1.67;;
59127;SDS011;44912;52.754;5.994;2022-12-29T03:32:32;4.45;;;1.80;;
59127;SDS011;44912;52.754;5.994;2022-12-29T03:35:02;6.47;;;1.95;;
59127;SDS011;44912;52.754;5.994;2022-12-29T03:37:31;5.80;;;1.67;;
59127;SDS011;44912;52.754;5.994;2022-12-29T03:40:03;4.28;;;1.45;;
59127;SDS011;44912;52.754;5.994;2022-12-29T03:42:30;5.57;;;1.65;;
59127;SDS011;44912;52.754;5.994;2022-12-29T03:44:59;8.90;;;1.75;;
59127;SDS011;44912;52.754;5.994;2022-12-29T03:47:24;6.22;;;1.50;;
59127;SDS011;44912;52.754;5.994;2022-12-29T03:49:50;6.82;;;1.58;;
59127;SDS011;44912;52.754;5.994;2022-12-29T03:52:16;4.10;;;1.30;;
59127;SDS011;44912;52.754;5.994;2022-12-29T03:54:42;3.90;;;1.33;;
59127;SDS011;44912;52.754;5.994;2022-12-29T03:57:08;3.85;;;1.00;;
59127;SDS011;44912;52.754;5.994;2022-12-29T03:59:35;7.10;;;1.08;;
59127;SDS011;44912;52.754;5.994;2022-12-29T04:02:00;4.97;;;0.90;;
59127;SDS011;44912;52.754;5.994;2022-12-29T04:04:26;3.08;;;0.70;;
59127;SDS011;44912;52.754;5.994;2022-12-29T04:06:51;4.10;;;0.95;;
59127;SDS011;44912;52.754;5.994;2022-12-29T04:09:17;3.05;;;1.00;;
59127;SDS011;44912;52.754;5.994;2022-12-29T04:11:42;5.30;;;1.23;;
59127;SDS011;44912;52.754;5.994;2022-12-29T04:14:08;4.35;;;0.93;;
59127;SDS011;44912;52.754;5.994;2022-12-29T04:16:34;3.83;;;0.70;;
59127;SDS011;44912;52.754;5.994;2022-12-29T04:19:01;3.97;;;0.88;;
59127;SDS011;44912;52.754;5.994;2022-12-29T04:21:26;4.82;;;1.00;;
59127;SDS011;44912;52.754;5.994;2022-12-29T04:23:52;6.28;;;1.60;;
59127;SDS011;44912;52.754;5.994;2022-12-29T04:26:18;5.25;;;1.50;;
59127;SDS011;44912;52.754;5.994;2022-12-29T04:28:43;8.63;;;1.48;;
59127;SDS011;44912;52.754;5.994;2022-12-29T04:31:09;9.93;;;2.05;;
59127;SDS011;44912;52.754;5.994;2022-12-29T04:33:35;8.50;;;1.80;;
59127;SDS011;44912;52.754;5.994;2022-12-29T04:36:00;7.13;;;1.50;;
59127;SDS011;44912;52.754;5.994;2022-12-29T04:38:26;8.07;;;1.50;;
59127;SDS011;44912;52.754;5.994;2022-12-29T04:40:52;8.23;;;1.55;;
59127;SDS011;44912;52.754;5.994;2022-12-29T04:43:17;11.40;;;1.60;;
59127;SDS011;44912;52.754;5.994;2022-12-29T04:45:47;6.60;;;1.40;;
59127;SDS011;44912;52.754;5.994;2022-12-29T04:48:13;9.75;;;1.65;;
59127;SDS011;44912;52.754;5.994;2022-12-29T04:50:39;9.85;;;1.40;;
59127;SDS011;44912;52.754;5.994;2022-12-29T04:53:05;9.25;;;1.75;;
59127;SDS011;44912;52.754;5.994;2022-12-29T04:55:31;9.55;;;1.67;;
59127;SDS011;44912;52.754;5.994;2022-12-29T04:57:56;11.32;;;2.08;;
59127;SDS011;44912;52.754;5.994;2022-12-29T05:00:22;10.80;;;1.98;;
59127;SDS011;44912;52.754;5.994;2022-12-29T05:02:48;10.48;;;1.55;;
59127;SDS011;44912;52.754;5.994;2022-12-29T05:05:13;10.90;;;2.00;;
59127;SDS011;44912;52.754;5.994;2022-12-29T05:07:39;8.32;;;1.60;;
59127;SDS011;44912;52.754;5.994;2022-12-29T05:10:05;11.32;;;2.20;;
59127;SDS011;44912;52.754;5.994;2022-12-29T05:12:32;11.98;;;1.73;;
59127;SDS011;44912;52.754;5.994;2022-12-29T05:14:58;11.50;;;1.98;;
59127;SDS011;44912;52.754;5.994;2022-12-29T05:17:23;9.82;;;1.42;;
59127;SDS011;44912;52.754;5.994;2022-12-29T05:19:49;8.07;;;1.27;;
59127;SDS011;44912;52.754;5.994;2022-12-29T05:22:15;8.18;;;1.45;;
59127;SDS011;44912;52.754;5.994;2022-12-29T05:24:40;8.32;;;1.55;;
59127;SDS011;44912;52.754;5.994;2022-12-29T05:27:06;10.13;;;1.45;;
59127;SDS011;44912;52.754;5.994;2022-12-29T05:29:31;9.32;;;1.33;;
59127;SDS011;44912;52.754;5.994;2022-12-29T05:31:57;7.05;;;1.30;;
59127;SDS011;44912;52.754;5.994;2022-12-29T05:34:22;8.95;;;1.48;;
59127;SDS011;44912;52.754;5.994;2022-12-29T05:36:48;12.20;;;2.00;;
59127;SDS011;44912;52.754;5.994;2022-12-29T05:39:13;8.10;;;1.85;;
59127;SDS011;44912;52.754;5.994;2022-12-29T05:41:39;5.75;;;1.35;;
59127;SDS011;44912;52.754;5.994;2022-12-29T05:44:04;10.85;;;1.67;;
59127;SDS011;44912;52.754;5.994;2022-12-29T05:46:30;9.35;;;1.60;;
59127;SDS011;44912;52.754;5.994;2022-12-29T05:48:56;8.50;;;1.80;;
59127;SDS011;44912;52.754;5.994;2022-12-29T05:51:21;8.32;;;1.33;;
59127;SDS011;44912;52.754;5.994;2022-12-29T05:53:47;12.07;;;1.60;;
59127;SDS011;44912;52.754;5.994;2022-12-29T05:56:12;9.73;;;1.40;;
59127;SDS011;44912;52.754;5.994;2022-12-29T05:58:38;11.82;;;1.77;;
59127;SDS011;44912;52.754;5.994;2022-12-29T06:01:03;11.85;;;2.00;;
59127;SDS011;44912;52.754;5.994;2022-12-29T06:03:29;11.10;;;1.85;;
59127;SDS011;44912;52.754;5.994;2022-12-29T06:05:55;11.02;;;2.00;;
59127;SDS011;44912;52.754;5.994;2022-12-29T06:08:20;13.05;;;2.42;;
59127;SDS011;44912;52.754;5.994;2022-12-29T06:10:46;9.55;;;1.75;;
59127;SDS011;44912;52.754;5.994;2022-12-29T06:13:11;13.27;;;2.22;;
59127;SDS011;44912;52.754;5.994;2022-12-29T06:15:37;14.45;;;2.53;;
59127;SDS011;44912;52.754;5.994;2022-12-29T06:18:02;10.98;;;1.55;;
59127;SDS011;44912;52.754;5.994;2022-12-29T06:20:28;13.30;;;2.20;;
59127;SDS011;44912;52.754;5.994;2022-12-29T06:22:53;12.50;;;1.90;;
59127;SDS011;44912;52.754;5.994;2022-12-29T06:25:19;14.27;;;2.20;;
59127;SDS011;44912;52.754;5.994;2022-12-29T06:27:44;11.32;;;2.60;;
59127;SDS011;44912;52.754;5.994;2022-12-29T06:30:10;14.50;;;2.20;;
59127;SDS011;44912;52.754;5.994;2022-12-29T06:32:36;8.60;;;1.70;;
59127;SDS011;44912;52.754;5.994;2022-12-29T06:35:02;10.77;;;1.90;;
59127;SDS011;44912;52.754;5.994;2022-12-29T06:37:29;12.10;;;1.80;;
59127;SDS011;44912;52.754;5.994;2022-12-29T06:39:55;10.27;;;1.77;;
59127;SDS011;44912;52.754;5.994;2022-12-29T06:42:21;10.77;;;1.80;;
59127;SDS011;44912;52.754;5.994;2022-12-29T06:44:46;13.20;;;2.50;;
59127;SDS011;44912;52.754;5.994;2022-12-29T06:47:12;9.82;;;1.70;;
59127;SDS011;44912;52.754;5.994;2022-12-29T06:49:37;13.02;;;2.08;;
59127;SDS011;44912;52.754;5.994;2022-12-29T06:52:03;9.93;;;1.60;;
59127;SDS011;44912;52.754;5.994;2022-12-29T06:54:30;10.82;;;2.05;;
59127;SDS011;44912;52.754;5.994;2022-12-29T06:56:56;15.05;;;2.15;;
59127;SDS011;44912;52.754;5.994;2022-12-29T06:59:21;11.80;;;1.95;;
59127;SDS011;44912;52.754;5.994;2022-12-29T07:01:47;13.10;;;2.08;;
59127;SDS011;44912;52.754;5.994;2022-12-29T07:04:13;13.38;;;2.25;;
59127;SDS011;44912;52.754;5.994;2022-12-29T07:06:38;11.27;;;1.92;;
59127;SDS011;44912;52.754;5.994;2022-12-29T07:09:05;15.95;;;2.67;;
59127;SDS011;44912;52.754;5.994;2022-12-29T07:11:32;14.02;;;2.22;;
59127;SDS011;44912;52.754;5.994;2022-12-29T07:13:58;12.35;;;2.10;;
59127;SDS011;44912;52.754;5.994;2022-12-29T07:16:24;11.23;;;2.22;;
59127;SDS011;44912;52.754;5.994;2022-12-29T07:18:50;10.20;;;2.20;;
59127;SDS011;44912;52.754;5.994;2022-12-29T07:21:16;12.80;;;1.80;;
59127;SDS011;44912;52.754;5.994;2022-12-29T07:23:42;10.82;;;2.17;;
59127;SDS011;44912;52.754;5.994;2022-12-29T07:26:08;14.23;;;2.00;;
59127;SDS011;44912;52.754;5.994;2022-12-29T07:28:37;11.60;;;2.17;;
59127;SDS011;44912;52.754;5.994;2022-12-29T07:31:07;11.65;;;2.25;;
59127;SDS011;44912;52.754;5.994;2022-12-29T07:33:40;9.32;;;1.70;;
59127;SDS011;44912;52.754;5.994;2022-12-29T07:36:06;15.13;;;2.40;;
59127;SDS011;44912;52.754;5.994;2022-12-29T07:38:32;13.27;;;2.45;;
59127;SDS011;44912;52.754;5.994;2022-12-29T07:40:57;14.05;;;2.33;;
59127;SDS011;44912;52.754;5.994;2022-12-29T07:43:23;16.90;;;3.42;;
59127;SDS011;44912;52.754;5.994;2022-12-29T07:45:49;11.35;;;1.85;;
59127;SDS011;44912;52.754;5.994;2022-12-29T07:48:14;13.30;;;2.67;;
59127;SDS011;44912;52.754;5.994;2022-12-29T07:50:40;11.63;;;1.95;;
59127;SDS011;44912;52.754;5.994;2022-12-29T07:53:06;16.35;;;2.13;;
59127;SDS011;44912;52.754;5.994;2022-12-29T07:55:31;17.70;;;2.70;;
59127;SDS011;44912;52.754;5.994;2022-12-29T07:57:57;12.93;;;2.38;;
59127;SDS011;44912;52.754;5.994;2022-12-29T08:00:23;14.05;;;2.25;;
59127;SDS011;44912;52.754;5.994;2022-12-29T08:02:48;14.80;;;2.80;;
59127;SDS011;44912;52.754;5.994;2022-12-29T08:05:14;16.02;;;2.42;;
59127;SDS011;44912;52.754;5.994;2022-12-29T08:07:42;13.35;;;2.53;;
59127;SDS011;44912;52.754;5.994;2022-12-29T08:10:09;16.63;;;2.60;;
59127;SDS011;44912;52.754;5.994;2022-12-29T08:12:35;16.95;;;2.88;;
59127;SDS011;44912;52.754;5.994;2022-12-29T08:15:02;19.08;;;2.67;;
59127;SDS011;44912;52.754;5.994;2022-12-29T08:17:28;14.55;;;2.53;;
59127;SDS011;44912;52.754;5.994;2022-12-29T08:19:53;20.85;;;3.20;;
59127;SDS011;44912;52.754;5.994;2022-12-29T08:22:19;19.58;;;3.05;;
59127;SDS011;44912;52.754;5.994;2022-12-29T08:24:44;15.52;;;2.80;;
59127;SDS011;44912;52.754;5.994;2022-12-29T08:27:10;15.55;;;2.63;;
59127;SDS011;44912;52.754;5.994;2022-12-29T08:29:36;18.13;;;3.10;;
59127;SDS011;44912;52.754;5.994;2022-12-29T08:32:01;14.80;;;2.40;;
59127;SDS011;44912;52.754;5.994;2022-12-29T08:34:27;15.68;;;2.05;;
59127;SDS011;44912;52.754;5.994;2022-12-29T08:36:52;14.90;;;2.42;;
59127;SDS011;44912;52.754;5.994;2022-12-29T08:39:18;15.57;;;2.63;;
59127;SDS011;44912;52.754;5.994;2022-12-29T08:41:44;13.20;;;2.25;;
59127;SDS011;44912;52.754;5.994;2022-12-29T08:44:10;16.83;;;2.50;;
59127;SDS011;44912;52.754;5.994;2022-12-29T08:46:35;12.13;;;2.08;;
59127;SDS011;44912;52.754;5.994;2022-12-29T08:49:01;13.50;;;2.85;;
59127;SDS011;44912;52.754;5.994;2022-12-29T08:51:26;12.13;;;2.20;;
59127;SDS011;44912;52.754;5.994;2022-12-29T08:53:52;10.95;;;2.03;;
59127;SDS011;44912;52.754;5.994;2022-12-29T08:56:18;14.27;;;2.78;;
59127;SDS011;44912;52.754;5.994;2022-12-29T08:58:43;14.43;;;2.47;;
59127;SDS011;44912;52.754;5.994;2022-12-29T09:01:09;12.23;;;2.15;;
59127;SDS011;44912;52.754;5.994;2022-12-29T09:03:35;16.45;;;2.60;;
59127;SDS011;44912;52.754;5.994;2022-12-29T09:06:00;13.05;;;2.35;;
59127;SDS011;44912;52.754;5.994;2022-12-29T09:08:26;14.18;;;2.22;;
59127;SDS011;44912;52.754;5.994;2022-12-29T09:10:52;13.77;;;2.42;;
59127;SDS011;44912;52.754;5.994;2022-12-29T09:13:17;15.35;;;2.25;;
59127;SDS011;44912;52.754;5.994;2022-12-29T09:15:43;15.77;;;2.55;;
59127;SDS011;44912;52.754;5.994;2022-12-29T09:18:09;15.85;;;2.25;;
59127;SDS011;44912;52.754;5.994;2022-12-29T09:20:36;11.68;;;2.08;;
59127;SDS011;44912;52.754;5.994;2022-12-29T09:23:02;12.48;;;2.60;;
59127;SDS011;44912;52.754;5.994;2022-12-29T09:25:28;15.20;;;2.40;;
59127;SDS011;44912;52.754;5.994;2022-12-29T09:27:54;14.32;;;2.20;;
59127;SDS011;44912;52.754;5.994;2022-12-29T09:30:21;13.32;;;2.40;;
59127;SDS011;44912;52.754;5.994;2022-12-29T09:32:48;15.32;;;2.15;;
59127;SDS011;44912;52.754;5.994;2022-12-29T09:35:15;15.45;;;2.40;;
59127;SDS011;44912;52.754;5.994;2022-12-29T09:37:41;13.63;;;2.85;;
59127;SDS011;44912;52.754;5.994;2022-12-29T09:40:21;18.30;;;2.70;;
59127;SDS011;44912;52.754;5.994;2022-12-29T09:43:10;17.27;;;2.45;;
59127;SDS011;44912;52.754;5.994;2022-12-29T09:45:43;11.25;;;2.28;;
59127;SDS011;44912;52.754;5.994;2022-12-29T09:48:20;16.38;;;2.47;;
59127;SDS011;44912;52.754;5.994;2022-12-29T09:50:55;16.35;;;2.70;;
59127;SDS011;44912;52.754;5.994;2022-12-29T09:53:29;14.88;;;2.58;;
59127;SDS011;44912;52.754;5.994;2022-12-29T09:56:02;17.58;;;2.40;;
59127;SDS011;44912;52.754;5.994;2022-12-29T09:58:32;13.52;;;2.20;;
59127;SDS011;44912;52.754;5.994;2022-12-29T10:01:05;14.88;;;2.38;;
59127;SDS011;44912;52.754;5.994;2022-12-29T10:03:52;15.02;;;2.50;;
59127;SDS011;44912;52.754;5.994;2022-12-29T10:06:33;15.88;;;2.60;;
59127;SDS011;44912;52.754;5.994;2022-12-29T10:09:12;11.55;;;2.05;;
59127;SDS011;44912;52.754;5.994;2022-12-29T10:11:50;14.07;;;2.33;;
59127;SDS011;44912;52.754;5.994;2022-12-29T10:20:38;14.18;;;2.30;;
59127;SDS011;44912;52.754;5.994;2022-12-29T10:25:48;16.25;;;2.25;;
59127;SDS011;44912;52.754;5.994;2022-12-29T10:30:47;14.07;;;2.55;;
59127;SDS011;44912;52.754;5.994;2022-12-29T10:33:35;12.15;;;2.13;;
59127;SDS011;44912;52.754;5.994;2022-12-29T10:36:12;15.02;;;2.90;;
59127;SDS011;44912;52.754;5.994;2022-12-29T10:41:38;11.70;;;2.60;;
59127;SDS011;44912;52.754;5.994;2022-12-29T10:44:16;14.57;;;2.20;;
59127;SDS011;44912;52.754;5.994;2022-12-29T10:46:44;12.80;;;2.50;;
59127;SDS011;44912;52.754;5.994;2022-12-29T10:49:35;17.13;;;3.35;;
59127;SDS011;44912;52.754;5.994;2022-12-29T10:52:05;10.95;;;2.50;;
59127;SDS011;44912;52.754;5.994;2022-12-29T10:54:33;11.68;;;2.50;;
59127;SDS011;44912;52.754;5.994;2022-12-29T10:59:35;10.43;;;2.42;;
59127;SDS011;44912;52.754;5.994;2022-12-29T11:04:48;18.27;;;3.05;;
59127;SDS011;44912;52.754;5.994;2022-12-29T11:07:29;13.40;;;2.72;;
59127;SDS011;44912;52.754;5.994;2022-12-29T11:09:55;15.20;;;3.17;;
59127;SDS011;44912;52.754;5.994;2022-12-29T11:12:42;19.92;;;3.35;;
59127;SDS011;44912;52.754;5.994;2022-12-29T11:15:53;17.63;;;2.95;;
59127;SDS011;44912;52.754;5.994;2022-12-29T11:18:26;17.00;;;3.28;;
59127;SDS011;44912;52.754;5.994;2022-12-29T11:20:57;18.27;;;3.28;;
59127;SDS011;44912;52.754;5.994;2022-12-29T11:26:13;14.77;;;2.78;;
59127;SDS011;44912;52.754;5.994;2022-12-29T11:28:39;17.13;;;3.08;;
59127;SDS011;44912;52.754;5.994;2022-12-29T11:31:06;18.08;;;4.05;;
59127;SDS011;44912;52.754;5.994;2022-12-29T11:33:34;17.23;;;3.50;;
59127;SDS011;44912;52.754;5.994;2022-12-29T11:36:02;21.60;;;3.83;;
59127;SDS011;44912;52.754;5.994;2022-12-29T11:38:51;18.88;;;3.65;;
59127;SDS011;44912;52.754;5.994;2022-12-29T11:41:23;18.70;;;3.25;;
59127;SDS011;44912;52.754;5.994;2022-12-29T11:43:54;21.38;;;3.95;;
59127;SDS011;44912;52.754;5.994;2022-12-29T11:46:24;23.27;;;3.72;;
59127;SDS011;44912;52.754;5.994;2022-12-29T11:48:58;23.25;;;3.22;;
59127;SDS011;44912;52.754;5.994;2022-12-29T11:54:27;22.58;;;3.90;;
59127;SDS011;44912;52.754;5.994;2022-12-29T11:56:57;21.38;;;4.05;;
59127;SDS011;44912;52.754;5.994;2022-12-29T12:01:52;20.88;;;3.47;;
59127;SDS011;44912;52.754;5.994;2022-12-29T12:04:21;16.95;;;3.55;;
59127;SDS011;44912;52.754;5.994;2022-12-29T12:07:03;25.95;;;4.13;;
59127;SDS011;44912;52.754;5.994;2022-12-29T12:09:35;18.13;;;2.88;;
59127;SDS011;44912;52.754;5.994;2022-12-29T12:12:09;23.00;;;3.17;;
59127;SDS011;44912;52.754;5.994;2022-12-29T12:14:59;27.55;;;3.78;;
59127;SDS011;44912;52.754;5.994;2022-12-29T12:17:31;23.95;;;4.35;;
59127;SDS011;44912;52.754;5.994;2022-12-29T12:23:14;21.35;;;4.50;;
59127;SDS011;44912;52.754;5.994;2022-12-29T12:28:54;24.48;;;4.78;;
59127;SDS011;44912;52.754;5.994;2022-12-29T12:33:50;18.73;;;3.60;;
59127;SDS011;44912;52.754;5.994;2022-12-29T12:36:37;14.73;;;2.75;;
59127;SDS011;44912;52.754;5.994;2022-12-29T12:39:19;20.42;;;3.40;;
59127;SDS011;44912;52.754;5.994;2022-12-29T13:01:36;18.88;;;2.47;;
59127;SDS011;44912;52.754;5.994;2022-12-29T13:04:20;15.32;;;2.70;;
59127;SDS011;44912;52.754;5.994;2022-12-29T13:09:58;14.65;;;2.75;;
59127;SDS011;44912;52.754;5.994;2022-12-29T13:15:40;15.05;;;2.60;;
59127;SDS011;44912;52.754;5.994;2022-12-29T13:26:42;13.43;;;2.42;;
59127;SDS011;44912;52.754;5.994;2022-12-29T13:31:47;14.63;;;2.50;;
59127;SDS011;44912;52.754;5.994;2022-12-29T13:37:13;11.60;;;2.03;;
59127;SDS011;44912;52.754;5.994;2022-12-29T13:39:47;13.82;;;2.53;;
59127;SDS011;44912;52.754;5.994;2022-12-29T13:42:16;13.33;;;2.67;;
59127;SDS011;44912;52.754;5.994;2022-12-29T13:44:55;14.13;;;2.30;;
59127;SDS011;44912;52.754;5.994;2022-12-29T13:47:40;14.75;;;2.42;;
59127;SDS011;44912;52.754;5.994;2022-12-29T13:50:12;11.18;;;2.00;;
59127;SDS011;44912;52.754;5.994;2022-12-29T13:52:45;14.73;;;1.92;;
59127;SDS011;44912;52.754;5.994;2022-12-29T13:58:17;13.13;;;2.38;;
59127;SDS011;44912;52.754;5.994;2022-12-29T14:01:00;14.32;;;2.03;;
59127;SDS011;44912;52.754;5.994;2022-12-29T14:03:43;14.20;;;2.63;;
59127;SDS011;44912;52.754;5.994;2022-12-29T14:06:12;11.43;;;2.15;;
59127;SDS011;44912;52.754;5.994;2022-12-29T14:08:41;11.73;;;1.95;;
59127;SDS011;44912;52.754;5.994;2022-12-29T14:11:11;10.98;;;2.13;;
59127;SDS011;44912;52.754;5.994;2022-12-29T14:13:40;10.10;;;1.80;;
59127;SDS011;44912;52.754;5.994;2022-12-29T14:16:10;9.68;;;1.88;;
59127;SDS011;44912;52.754;5.994;2022-12-29T14:18:49;10.43;;;1.95;;
59127;SDS011;44912;52.754;5.994;2022-12-29T14:23:42;11.38;;;1.75;;
59127;SDS011;44912;52.754;5.994;2022-12-29T14:26:43;12.45;;;2.28;;
59127;SDS011;44912;52.754;5.994;2022-12-29T14:31:46;11.68;;;2.20;;
59127;SDS011;44912;52.754;5.994;2022-12-29T14:36:41;13.63;;;1.90;;
59127;SDS011;44912;52.754;5.994;2022-12-29T14:44:51;14.77;;;2.03;;
59127;SDS011;44912;52.754;5.994;2022-12-29T14:47:18;11.30;;;2.03;;
59127;SDS011;44912;52.754;5.994;2022-12-29T14:50:10;12.20;;;1.90;;
59127;SDS011;44912;52.754;5.994;2022-12-29T14:52:54;12.25;;;1.95;;
59127;SDS011;44912;52.754;5.994;2022-12-29T15:00:54;11.23;;;2.72;;
59127;SDS011;44912;52.754;5.994;2022-12-29T15:03:21;14.60;;;2.13;;
59127;SDS011;44912;52.754;5.994;2022-12-29T15:05:58;16.15;;;2.10;;
59127;SDS011;44912;52.754;5.994;2022-12-29T15:08:33;15.80;;;2.67;;
59127;SDS011;44912;52.754;5.994;2022-12-29T15:13:47;15.23;;;3.03;;
59127;SDS011;44912;52.754;5.994;2022-12-29T15:16:20;14.88;;;2.42;;
59127;SDS011;44912;52.754;5.994;2022-12-29T15:18:53;15.57;;;2.35;;
59127;SDS011;44912;52.754;5.994;2022-12-29T15:21:23;13.90;;;2.38;;
59127;SDS011;44912;52.754;5.994;2022-12-29T15:23:57;11.75;;;2.00;;
59127;SDS011;44912;52.754;5.994;2022-12-29T15:26:23;11.15;;;2.22;;
59127;SDS011;44912;52.754;5.994;2022-12-29T15:29:01;15.20;;;2.28;;
59127;SDS011;44912;52.754;5.994;2022-12-29T15:31:27;12.55;;;2.30;;
59127;SDS011;44912;52.754;5.994;2022-12-29T15:33:53;12.70;;;2.00;;
59127;SDS011;44912;52.754;5.994;2022-12-29T15:36:28;12.18;;;1.90;;
59127;SDS011;44912;52.754;5.994;2022-12-29T15:39:01;13.07;;;2.33;;
59127;SDS011;44912;52.754;5.994;2022-12-29T15:44:55;14.38;;;2.38;;
59127;SDS011;44912;52.754;5.994;2022-12-29T15:47:21;12.55;;;2.10;;
59127;SDS011;44912;52.754;5.994;2022-12-29T15:49:49;13.38;;;2.03;;
59127;SDS011;44912;52.754;5.994;2022-12-29T15:52:18;16.23;;;2.88;;
59127;SDS011;44912;52.754;5.994;2022-12-29T15:54:48;17.88;;;2.78;;
59127;SDS011;44912;52.754;5.994;2022-12-29T15:57:29;15.02;;;2.00;;
59127;SDS011;44912;52.754;5.994;2022-12-29T16:03:03;12.98;;;2.38;;
59127;SDS011;44912;52.754;5.994;2022-12-29T16:05:34;11.88;;;2.50;;
59127;SDS011;44912;52.754;5.994;2022-12-29T16:08:02;16.10;;;3.05;;
59127;SDS011;44912;52.754;5.994;2022-12-29T16:10:45;14.80;;;2.92;;
59127;SDS011;44912;52.754;5.994;2022-12-29T16:13:15;13.75;;;2.80;;
59127;SDS011;44912;52.754;5.994;2022-12-29T16:15:44;9.02;;;2.13;;
59127;SDS011;44912;52.754;5.994;2022-12-29T16:18:14;7.22;;;1.00;;
59127;SDS011;44912;52.754;5.994;2022-12-29T16:20:49;3.70;;;0.65;;
59127;SDS011;44912;52.754;5.994;2022-12-29T16:23:19;3.75;;;1.13;;
59127;SDS011;44912;52.754;5.994;2022-12-29T16:25:48;3.43;;;0.80;;
59127;SDS011;44912;52.754;5.994;2022-12-29T16:28:17;4.95;;;1.05;;
59127;SDS011;44912;52.754;5.994;2022-12-29T16:30:44;4.80;;;1.23;;
59127;SDS011;44912;52.754;5.994;2022-12-29T16:33:32;7.05;;;1.35;;
59127;SDS011;44912;52.754;5.994;2022-12-29T16:36:20;7.03;;;1.10;;
59127;SDS011;44912;52.754;5.994;2022-12-29T16:39:02;6.07;;;1.08;;
59127;SDS011;44912;52.754;5.994;2022-12-29T16:41:37;8.93;;;1.70;;
59127;SDS011;44912;52.754;5.994;2022-12-29T16:49:35;12.50;;;2.67;;
59127;SDS011;44912;52.754;5.994;2022-12-29T16:52:13;11.43;;;3.20;;
59127;SDS011;44912;52.754;5.994;2022-12-29T16:54:44;14.23;;;3.60;;
59127;SDS011;44912;52.754;5.994;2022-12-29T16:57:33;15.00;;;3.80;;
59127;SDS011;44912;52.754;5.994;2022-12-29T17:00:07;13.23;;;3.40;;
59127;SDS011;44912;52.754;5.994;2022-12-29T17:02:42;14.68;;;3.58;;
59127;SDS011;44912;52.754;5.994;2022-12-29T17:05:11;14.85;;;3.38;;
59127;SDS011;44912;52.754;5.994;2022-12-29T17:07:38;11.82;;;3.50;;
59127;SDS011;44912;52.754;5.994;2022-12-29T17:10:04;15.20;;;3.17;;
59127;SDS011;44912;52.754;5.994;2022-12-29T17:12:30;13.50;;;3.50;;
59127;SDS011;44912;52.754;5.994;2022-12-29T17:14:59;14.82;;;3.63;;
59127;SDS011;44912;52.754;5.994;2022-12-29T17:19:59;13.63;;;3.30;;
59127;SDS011;44912;52.754;5.994;2022-12-29T17:22:28;16.58;;;3.40;;
59127;SDS011;44912;52.754;5.994;2022-12-29T17:24:55;12.57;;;3.95;;